VKG808 ESGG-LGRP
Flight info
| Callsign | VKG808 |
|---|---|
| Flight time | N/A |
| Altitude | 33000 |
| Route | TOPLA DCT ELVIX DCT POKEN DCT ELTUB DCT UNVOX DCT TUPUR DCT ADVAB DCT ARMEX L619 NUDRO DCT REGLI DCT BILNA DCT TPS DCT EBORO DCT PARAK DCT PELOV DCT OSVIX DCT OKLOP DCT NEPOS DCT RAXAD DCT RUGAS UN128 FSK DCT GIKAS DCT MES UN139 LURUS UL995 CODIC |
| Aircraft | A321/M-SDE3FGHIRWY/LB1 |
Departure
| Time | N/A |
|---|---|
| Airport | Göteborg Landvetter Airport (ESGG) |
Arrival
| Time | 2026-05-03 20:39 |
|---|---|
| Airport | Rhodes International Airport "Diagoras" (LGRP) |
| Time | Latitude | Longitude | Altitude | Speed | Heading |
|---|---|---|---|---|---|
| 2026-05-03 20:15 | 37.26001 | 26.35269 | 34979 ft | 502 kts | 162° |
| 2026-05-03 20:15 | 37.19407 | 26.38199 | 34970 ft | 503 kts | 162° |
| 2026-05-03 20:16 | 37.12807 | 26.41124 | 34964 ft | 503 kts | 162° |
| 2026-05-03 20:16 | 37.06203 | 26.44049 | 34952 ft | 504 kts | 162° |
| 2026-05-03 20:17 | 36.99596 | 26.46981 | 34957 ft | 504 kts | 162° |
| 2026-05-03 20:17 | 36.93163 | 26.50454 | 34961 ft | 507 kts | 149° |
| 2026-05-03 20:17 | 36.90353 | 26.53109 | 34950 ft | 508 kts | 137° |
| 2026-05-03 20:18 | 36.87964 | 26.56365 | 34954 ft | 509 kts | 126° |
| 2026-05-03 20:18 | 36.84646 | 26.64131 | 34865 ft | 511 kts | 112° |
| 2026-05-03 20:18 | 36.83250 | 26.68203 | 34445 ft | 506 kts | 112° |
| 2026-05-03 20:19 | 36.81876 | 26.72194 | 34204 ft | 497 kts | 112° |
| 2026-05-03 20:19 | 36.80509 | 26.76150 | 33552 ft | 498 kts | 112° |
| 2026-05-03 20:19 | 36.79127 | 26.80144 | 32571 ft | 503 kts | 112° |
| 2026-05-03 20:19 | 36.77740 | 26.84161 | 31677 ft | 505 kts | 111° |
| 2026-05-03 20:20 | 36.76348 | 26.88192 | 30830 ft | 506 kts | 111° |
| 2026-05-03 20:20 | 36.74956 | 26.92224 | 29996 ft | 506 kts | 111° |
| 2026-05-03 20:20 | 36.73569 | 26.96245 | 29017 ft | 504 kts | 111° |
| 2026-05-03 20:20 | 36.72185 | 27.00248 | 28040 ft | 502 kts | 111° |
| 2026-05-03 20:21 | 36.70803 | 27.04223 | 27214 ft | 497 kts | 111° |
| 2026-05-03 20:21 | 36.69434 | 27.08148 | 26445 ft | 491 kts | 111° |
| 2026-05-03 20:21 | 36.68082 | 27.12023 | 25838 ft | 483 kts | 110° |
| 2026-05-03 20:21 | 36.66753 | 27.15830 | 25220 ft | 477 kts | 110° |
| 2026-05-03 20:22 | 36.65439 | 27.19587 | 24623 ft | 470 kts | 110° |
| 2026-05-03 20:22 | 36.64140 | 27.23299 | 24041 ft | 464 kts | 110° |
| 2026-05-03 20:22 | 36.62861 | 27.26950 | 23460 ft | 457 kts | 109° |
| 2026-05-03 20:22 | 36.61594 | 27.30555 | 22726 ft | 451 kts | 110° |
| 2026-05-03 20:23 | 36.60343 | 27.34127 | 21928 ft | 448 kts | 109° |
| 2026-05-03 20:23 | 36.59107 | 27.37655 | 21386 ft | 440 kts | 110° |
| 2026-05-03 20:23 | 36.57895 | 27.41109 | 20854 ft | 432 kts | 110° |
| 2026-05-03 20:23 | 36.56698 | 27.44505 | 20345 ft | 425 kts | 110° |
| 2026-05-03 20:24 | 36.55519 | 27.47835 | 19851 ft | 418 kts | 110° |
| 2026-05-03 20:24 | 36.54356 | 27.51113 | 19393 ft | 410 kts | 110° |
| 2026-05-03 20:24 | 36.53214 | 27.54335 | 18940 ft | 404 kts | 110° |
| 2026-05-03 20:24 | 36.52091 | 27.57506 | 18486 ft | 398 kts | 110° |
| 2026-05-03 20:25 | 36.50987 | 27.60630 | 18068 ft | 392 kts | 110° |
| 2026-05-03 20:25 | 36.50222 | 27.62804 | 17743 ft | 388 kts | 110° |
| 2026-05-03 20:25 | 36.49144 | 27.65855 | 17333 ft | 384 kts | 110° |
| 2026-05-03 20:25 | 36.48070 | 27.68882 | 16915 ft | 382 kts | 110° |
| 2026-05-03 20:26 | 36.47027 | 27.71906 | 16491 ft | 379 kts | 106° |
| 2026-05-03 20:26 | 36.46308 | 27.75025 | 16063 ft | 373 kts | 97° |
| 2026-05-03 20:26 | 36.45888 | 27.78117 | 15649 ft | 371 kts | 95° |
| 2026-05-03 20:26 | 36.45472 | 27.81274 | 15208 ft | 369 kts | 95° |
| 2026-05-03 20:27 | 36.45059 | 27.84373 | 14779 ft | 368 kts | 95° |
| 2026-05-03 20:27 | 36.44639 | 27.87505 | 14325 ft | 367 kts | 96° |
| 2026-05-03 20:27 | 36.44001 | 27.90574 | 13868 ft | 369 kts | 107° |
| 2026-05-03 20:27 | 36.42932 | 27.93475 | 13349 ft | 371 kts | 117° |
| 2026-05-03 20:28 | 36.41475 | 27.96114 | 12879 ft | 370 kts | 126° |
| 2026-05-03 20:28 | 36.39903 | 27.98635 | 12389 ft | 368 kts | 126° |
| 2026-05-03 20:28 | 36.38345 | 28.01148 | 11902 ft | 366 kts | 126° |
| 2026-05-03 20:28 | 36.36798 | 28.03648 | 11409 ft | 365 kts | 126° |
| 2026-05-03 20:29 | 36.35257 | 28.06137 | 10911 ft | 363 kts | 126° |
| 2026-05-03 20:29 | 36.33726 | 28.08610 | 10610 ft | 356 kts | 126° |
| 2026-05-03 20:29 | 36.32272 | 28.11033 | 10482 ft | 343 kts | 124° |
| 2026-05-03 20:29 | 36.30905 | 28.13391 | 10358 ft | 330 kts | 123° |
| 2026-05-03 20:30 | 36.29604 | 28.15670 | 10181 ft | 319 kts | 123° |
| 2026-05-03 20:30 | 36.28333 | 28.17897 | 9947 ft | 314 kts | 123° |
| 2026-05-03 20:30 | 36.27072 | 28.20100 | 9779 ft | 314 kts | 123° |
| 2026-05-03 20:30 | 36.25924 | 28.22420 | 9127 ft | 317 kts | 107° |
| 2026-05-03 20:31 | 36.25495 | 28.25040 | 8634 ft | 309 kts | 85° |
| 2026-05-03 20:31 | 36.25884 | 28.27611 | 8075 ft | 302 kts | 62° |
| 2026-05-03 20:31 | 36.26990 | 28.29755 | 7500 ft | 290 kts | 40° |
| 2026-05-03 20:31 | 36.28547 | 28.31185 | 6928 ft | 269 kts | 21° |
| 2026-05-03 20:32 | 36.30270 | 28.31839 | 6392 ft | 252 kts | 3° |
| 2026-05-03 20:32 | 36.31975 | 28.31864 | 5815 ft | 240 kts | 356° |
| 2026-05-03 20:32 | 36.33617 | 28.31806 | 5259 ft | 232 kts | 356° |
| 2026-05-03 20:32 | 36.35196 | 28.31755 | 4702 ft | 226 kts | 357° |
| 2026-05-03 20:33 | 36.36750 | 28.31706 | 4135 ft | 220 kts | 357° |
| 2026-05-03 20:33 | 36.38245 | 28.31796 | 3589 ft | 213 kts | 6° |
| 2026-05-03 20:33 | 36.39664 | 28.32170 | 3131 ft | 204 kts | 9° |
| 2026-05-03 20:33 | 36.41032 | 28.32569 | 2734 ft | 200 kts | 7° |
| 2026-05-03 20:34 | 36.42368 | 28.32458 | 2298 ft | 189 kts | 339° |
| 2026-05-03 20:34 | 36.43339 | 28.31462 | 2009 ft | 180 kts | 303° |
| 2026-05-03 20:34 | 36.43776 | 28.30024 | 1999 ft | 179 kts | 288° |
| 2026-05-03 20:34 | 36.44034 | 28.28528 | 1998 ft | 175 kts | 286° |
| 2026-05-03 20:35 | 36.44251 | 28.27168 | 2005 ft | 172 kts | 285° |
| 2026-05-03 20:35 | 36.44480 | 28.25713 | 2005 ft | 173 kts | 285° |
| 2026-05-03 20:35 | 36.44707 | 28.24258 | 2003 ft | 170 kts | 285° |
| 2026-05-03 20:35 | 36.44670 | 28.22798 | 2015 ft | 171 kts | 262° |
| 2026-05-03 20:36 | 36.44281 | 28.21449 | 1881 ft | 160 kts | 258° |
| 2026-05-03 20:36 | 36.43901 | 28.20189 | 1732 ft | 151 kts | 256° |
| 2026-05-03 20:36 | 36.43527 | 28.18989 | 1474 ft | 146 kts | 257° |
| 2026-05-03 20:36 | 36.43180 | 28.17845 | 1281 ft | 137 kts | 257° |
| 2026-05-03 20:37 | 36.42841 | 28.16755 | 1046 ft | 134 kts | 259° |
| 2026-05-03 20:37 | 36.42542 | 28.15652 | 895 ft | 134 kts | 261° |
| 2026-05-03 20:37 | 36.42251 | 28.14540 | 734 ft | 137 kts | 258° |
| 2026-05-03 20:37 | 36.41932 | 28.13419 | 584 ft | 137 kts | 256° |
| 2026-05-03 20:38 | 36.41610 | 28.12321 | 397 ft | 135 kts | 257° |
| 2026-05-03 20:38 | 36.41295 | 28.11227 | 219 ft | 136 kts | 256° |
| 2026-05-03 20:38 | 36.40972 | 28.10122 | 43 ft | 135 kts | 255° |
| 2026-05-03 20:38 | 36.40696 | 28.09149 | 30 ft | 97 kts | 249° |
| 2026-05-03 20:39 | 36.40566 | 28.08715 | 31 ft | 18 kts | 251° |
| 2026-05-03 20:39 | 36.40498 | 28.08644 | 27 ft | 14 kts | 166° |
| 2026-05-03 20:39 | 36.40459 | 28.08702 | 25 ft | 12 kts | 117° |
| 2026-05-03 20:39 | 36.40425 | 28.08766 | 28 ft | 7 kts | 131° |
| 2026-05-03 20:40 | 36.40404 | 28.08808 | 29 ft | 5 kts | 108° |
| 2026-05-03 20:40 | 36.40399 | 28.08874 | 29 ft | 6 kts | 95° |
| 2026-05-03 20:40 | 36.40396 | 28.08928 | 29 ft | 6 kts | 92° |
| 2026-05-03 20:40 | 36.40398 | 28.08984 | 29 ft | 6 kts | 82° |
| 2026-05-03 20:41 | 36.40405 | 28.09019 | 29 ft | 6 kts | 72° |
| 2026-05-03 20:41 | 36.40419 | 28.09069 | 29 ft | 6 kts | 70° |
| 2026-05-03 20:41 | 36.40433 | 28.09116 | 29 ft | 6 kts | 69° |
| 2026-05-03 20:41 | 36.40436 | 28.09148 | 29 ft | 3 kts | 107° |
| 2026-05-03 20:42 | 36.40422 | 28.09167 | 29 ft | 3 kts | 142° |
| 2026-05-03 20:42 | 36.40404 | 28.09178 | 29 ft | 3 kts | 156° |
| 2026-05-03 20:42 | 36.40388 | 28.09185 | 29 ft | 1 kts | 159° |
| 2026-05-03 20:42 | 36.40387 | 28.09186 | 29 ft | 0 kts | 159° |